sensor_id;sensor_type;location;lat;lon;timestamp;P1;durP1;ratioP1;P2;durP2;ratioP2
75818;SDS011;64453;51.944;9.796;2022-12-07T00:01:43;26.00;;;23.43;;
75818;SDS011;64453;51.944;9.796;2022-12-07T00:04:12;23.57;;;21.17;;
75818;SDS011;64453;51.944;9.796;2022-12-07T00:06:44;20.53;;;18.53;;
75818;SDS011;64453;51.944;9.796;2022-12-07T00:09:18;17.77;;;16.07;;
75818;SDS011;64453;51.944;9.796;2022-12-07T00:11:48;18.03;;;16.40;;
75818;SDS011;64453;51.944;9.796;2022-12-07T00:14:17;16.80;;;15.40;;
75818;SDS011;64453;51.944;9.796;2022-12-07T00:16:45;15.37;;;14.03;;
75818;SDS011;64453;51.944;9.796;2022-12-07T00:19:16;14.60;;;13.40;;
75818;SDS011;64453;51.944;9.796;2022-12-07T00:21:45;14.17;;;12.97;;
75818;SDS011;64453;51.944;9.796;2022-12-07T00:24:12;15.17;;;13.87;;
75818;SDS011;64453;51.944;9.796;2022-12-07T00:26:40;15.63;;;14.23;;
75818;SDS011;64453;51.944;9.796;2022-12-07T00:29:11;15.23;;;13.90;;
75818;SDS011;64453;51.944;9.796;2022-12-07T00:31:46;14.43;;;13.23;;
75818;SDS011;64453;51.944;9.796;2022-12-07T00:34:14;15.10;;;13.80;;
75818;SDS011;64453;51.944;9.796;2022-12-07T00:36:43;13.60;;;12.50;;
75818;SDS011;64453;51.944;9.796;2022-12-07T00:39:12;13.63;;;12.43;;
75818;SDS011;64453;51.944;9.796;2022-12-07T00:41:45;13.47;;;12.37;;
75818;SDS011;64453;51.944;9.796;2022-12-07T00:44:12;14.03;;;12.90;;
75818;SDS011;64453;51.944;9.796;2022-12-07T00:46:39;13.03;;;12.07;;
75818;SDS011;64453;51.944;9.796;2022-12-07T00:49:12;14.67;;;13.47;;
75818;SDS011;64453;51.944;9.796;2022-12-07T00:51:39;13.67;;;12.50;;
75818;SDS011;64453;51.944;9.796;2022-12-07T00:54:07;13.13;;;12.13;;
75818;SDS011;64453;51.944;9.796;2022-12-07T00:56:37;14.10;;;12.90;;
75818;SDS011;64453;51.944;9.796;2022-12-07T00:59:10;13.47;;;12.37;;
75818;SDS011;64453;51.944;9.796;2022-12-07T01:01:42;13.63;;;12.53;;
75818;SDS011;64453;51.944;9.796;2022-12-07T01:04:10;13.50;;;12.40;;
75818;SDS011;64453;51.944;9.796;2022-12-07T01:06:39;13.90;;;12.80;;
75818;SDS011;64453;51.944;9.796;2022-12-07T01:09:10;14.57;;;13.37;;
75818;SDS011;64453;51.944;9.796;2022-12-07T01:11:37;13.97;;;12.77;;
75818;SDS011;64453;51.944;9.796;2022-12-07T01:14:05;13.77;;;12.67;;
75818;SDS011;64453;51.944;9.796;2022-12-07T01:16:32;14.57;;;13.47;;
75818;SDS011;64453;51.944;9.796;2022-12-07T01:18:59;14.33;;;13.13;;
75818;SDS011;64453;51.944;9.796;2022-12-07T01:21:30;14.97;;;13.77;;
75818;SDS011;64453;51.944;9.796;2022-12-07T01:24:00;14.87;;;13.67;;
75818;SDS011;64453;51.944;9.796;2022-12-07T01:26:29;16.03;;;14.73;;
75818;SDS011;64453;51.944;9.796;2022-12-07T01:28:56;14.90;;;13.70;;
75818;SDS011;64453;51.944;9.796;2022-12-07T01:31:24;14.03;;;12.93;;
75818;SDS011;64453;51.944;9.796;2022-12-07T01:33:53;13.40;;;12.30;;
75818;SDS011;64453;51.944;9.796;2022-12-07T01:36:24;11.80;;;10.63;;
75818;SDS011;64453;51.944;9.796;2022-12-07T01:38:54;11.30;;;10.40;;
75818;SDS011;64453;51.944;9.796;2022-12-07T01:41:23;11.53;;;10.60;;
75818;SDS011;64453;51.944;9.796;2022-12-07T01:44:14;11.97;;;11.07;;
75818;SDS011;64453;51.944;9.796;2022-12-07T01:46:45;11.43;;;10.53;;
75818;SDS011;64453;51.944;9.796;2022-12-07T01:49:24;11.30;;;10.40;;
75818;SDS011;64453;51.944;9.796;2022-12-07T01:52:00;11.00;;;10.20;;
75818;SDS011;64453;51.944;9.796;2022-12-07T01:54:38;12.27;;;11.30;;
75818;SDS011;64453;51.944;9.796;2022-12-07T01:57:06;11.73;;;10.83;;
75818;SDS011;64453;51.944;9.796;2022-12-07T01:59:36;11.20;;;10.40;;
75818;SDS011;64453;51.944;9.796;2022-12-07T02:02:05;12.50;;;11.50;;
75818;SDS011;64453;51.944;9.796;2022-12-07T02:04:43;12.20;;;11.20;;
75818;SDS011;64453;51.944;9.796;2022-12-07T02:07:10;12.17;;;11.23;;
75818;SDS011;64453;51.944;9.796;2022-12-07T02:09:38;12.17;;;11.17;;
75818;SDS011;64453;51.944;9.796;2022-12-07T02:12:06;12.37;;;11.40;;
75818;SDS011;64453;51.944;9.796;2022-12-07T02:14:33;13.07;;;11.97;;
75818;SDS011;64453;51.944;9.796;2022-12-07T02:17:03;13.27;;;12.17;;
75818;SDS011;64453;51.944;9.796;2022-12-07T02:20:00;13.77;;;12.47;;
75818;SDS011;64453;51.944;9.796;2022-12-07T02:23:04;14.53;;;13.30;;
75818;SDS011;64453;51.944;9.796;2022-12-07T02:29:30;13.87;;;12.67;;
75818;SDS011;64453;51.944;9.796;2022-12-07T02:32:04;13.80;;;12.63;;
75818;SDS011;64453;51.944;9.796;2022-12-07T02:34:42;14.77;;;13.47;;
75818;SDS011;64453;51.944;9.796;2022-12-07T02:37:18;14.87;;;13.57;;
75818;SDS011;64453;51.944;9.796;2022-12-07T02:39:59;14.57;;;13.37;;
75818;SDS011;64453;51.944;9.796;2022-12-07T02:42:31;14.67;;;13.37;;
75818;SDS011;64453;51.944;9.796;2022-12-07T02:45:04;14.60;;;13.40;;
75818;SDS011;64453;51.944;9.796;2022-12-07T02:47:33;16.03;;;14.40;;
75818;SDS011;64453;51.944;9.796;2022-12-07T02:50:03;15.23;;;13.93;;
75818;SDS011;64453;51.944;9.796;2022-12-07T02:52:32;15.50;;;14.20;;
75818;SDS011;64453;51.944;9.796;2022-12-07T02:54:59;16.40;;;15.00;;
75818;SDS011;64453;51.944;9.796;2022-12-07T02:57:29;15.73;;;14.40;;
75818;SDS011;64453;51.944;9.796;2022-12-07T03:00:10;16.40;;;14.90;;
75818;SDS011;64453;51.944;9.796;2022-12-07T03:02:44;15.60;;;14.20;;
75818;SDS011;64453;51.944;9.796;2022-12-07T03:08:30;15.73;;;14.43;;
75818;SDS011;64453;51.944;9.796;2022-12-07T03:11:05;14.43;;;13.20;;
75818;SDS011;64453;51.944;9.796;2022-12-07T03:13:37;16.00;;;14.60;;
75818;SDS011;64453;51.944;9.796;2022-12-07T03:16:15;14.47;;;13.17;;
75818;SDS011;64453;51.944;9.796;2022-12-07T03:18:47;15.13;;;13.77;;
75818;SDS011;64453;51.944;9.796;2022-12-07T03:21:17;15.80;;;14.50;;
75818;SDS011;64453;51.944;9.796;2022-12-07T03:23:49;15.50;;;14.00;;
75818;SDS011;64453;51.944;9.796;2022-12-07T03:26:21;13.70;;;12.60;;
75818;SDS011;64453;51.944;9.796;2022-12-07T03:28:55;13.03;;;11.93;;
75818;SDS011;64453;51.944;9.796;2022-12-07T03:31:34;14.03;;;12.83;;
75818;SDS011;64453;51.944;9.796;2022-12-07T03:34:06;12.87;;;11.70;;
75818;SDS011;64453;51.944;9.796;2022-12-07T03:36:37;13.77;;;12.57;;
75818;SDS011;64453;51.944;9.796;2022-12-07T03:39:12;11.87;;;10.87;;
75818;SDS011;64453;51.944;9.796;2022-12-07T03:41:48;10.70;;;9.70;;
75818;SDS011;64453;51.944;9.796;2022-12-07T03:44:15;10.07;;;9.27;;
75818;SDS011;64453;51.944;9.796;2022-12-07T03:46:45;11.70;;;10.50;;
75818;SDS011;64453;51.944;9.796;2022-12-07T03:49:23;10.93;;;9.90;;
75818;SDS011;64453;51.944;9.796;2022-12-07T03:51:57;10.90;;;9.50;;
75818;SDS011;64453;51.944;9.796;2022-12-07T03:54:39;10.07;;;9.27;;
75818;SDS011;64453;51.944;9.796;2022-12-07T03:57:12;11.80;;;10.70;;
75818;SDS011;64453;51.944;9.796;2022-12-07T03:59:39;11.77;;;9.70;;
75818;SDS011;64453;51.944;9.796;2022-12-07T04:02:10;12.13;;;11.07;;
75818;SDS011;64453;51.944;9.796;2022-12-07T04:04:39;12.33;;;11.30;;
75818;SDS011;64453;51.944;9.796;2022-12-07T04:07:06;12.60;;;11.50;;
75818;SDS011;64453;51.944;9.796;2022-12-07T04:09:33;12.07;;;11.07;;
75818;SDS011;64453;51.944;9.796;2022-12-07T04:12:00;11.50;;;10.47;;
75818;SDS011;64453;51.944;9.796;2022-12-07T04:14:27;12.77;;;11.40;;
75818;SDS011;64453;51.944;9.796;2022-12-07T04:16:55;13.10;;;12.00;;
75818;SDS011;64453;51.944;9.796;2022-12-07T04:19:26;11.00;;;10.00;;
75818;SDS011;64453;51.944;9.796;2022-12-07T04:21:55;11.90;;;9.93;;
75818;SDS011;64453;51.944;9.796;2022-12-07T04:24:24;10.80;;;9.77;;
75818;SDS011;64453;51.944;9.796;2022-12-07T04:26:51;11.33;;;10.33;;
75818;SDS011;64453;51.944;9.796;2022-12-07T04:29:19;10.83;;;9.83;;
75818;SDS011;64453;51.944;9.796;2022-12-07T04:31:46;11.47;;;10.37;;
75818;SDS011;64453;51.944;9.796;2022-12-07T04:34:13;11.53;;;10.33;;
75818;SDS011;64453;51.944;9.796;2022-12-07T04:36:43;12.20;;;11.00;;
75818;SDS011;64453;51.944;9.796;2022-12-07T04:39:13;10.43;;;9.43;;
75818;SDS011;64453;51.944;9.796;2022-12-07T04:41:46;10.87;;;9.97;;
75818;SDS011;64453;51.944;9.796;2022-12-07T04:44:14;12.37;;;10.67;;
75818;SDS011;64453;51.944;9.796;2022-12-07T04:46:42;10.90;;;10.00;;
75818;SDS011;64453;51.944;9.796;2022-12-07T04:49:10;11.13;;;10.03;;
75818;SDS011;64453;51.944;9.796;2022-12-07T04:51:38;12.00;;;10.30;;
75818;SDS011;64453;51.944;9.796;2022-12-07T04:54:06;10.77;;;9.77;;
75818;SDS011;64453;51.944;9.796;2022-12-07T04:56:34;9.30;;;8.50;;
75818;SDS011;64453;51.944;9.796;2022-12-07T04:59:01;10.37;;;8.17;;
75818;SDS011;64453;51.944;9.796;2022-12-07T05:01:29;12.13;;;7.40;;
75818;SDS011;64453;51.944;9.796;2022-12-07T05:03:58;11.57;;;8.13;;
75818;SDS011;64453;51.944;9.796;2022-12-07T05:06:25;7.80;;;7.00;;
75818;SDS011;64453;51.944;9.796;2022-12-07T05:08:52;9.20;;;7.33;;
75818;SDS011;64453;51.944;9.796;2022-12-07T05:11:21;9.30;;;7.50;;
75818;SDS011;64453;51.944;9.796;2022-12-07T05:14:08;8.87;;;7.50;;
75818;SDS011;64453;51.944;9.796;2022-12-07T05:16:38;8.83;;;7.90;;
75818;SDS011;64453;51.944;9.796;2022-12-07T05:19:07;8.30;;;7.50;;
75818;SDS011;64453;51.944;9.796;2022-12-07T05:21:35;9.17;;;7.77;;
75818;SDS011;64453;51.944;9.796;2022-12-07T05:24:02;7.53;;;6.80;;
75818;SDS011;64453;51.944;9.796;2022-12-07T05:26:32;8.67;;;7.47;;
75818;SDS011;64453;51.944;9.796;2022-12-07T05:29:00;8.17;;;7.47;;
75818;SDS011;64453;51.944;9.796;2022-12-07T05:31:27;7.13;;;6.53;;
75818;SDS011;64453;51.944;9.796;2022-12-07T05:33:54;9.23;;;6.80;;
75818;SDS011;64453;51.944;9.796;2022-12-07T05:36:21;7.90;;;7.20;;
75818;SDS011;64453;51.944;9.796;2022-12-07T05:38:49;9.13;;;7.07;;
75818;SDS011;64453;51.944;9.796;2022-12-07T05:41:16;8.53;;;7.70;;
75818;SDS011;64453;51.944;9.796;2022-12-07T05:44:04;10.10;;;7.53;;
75818;SDS011;64453;51.944;9.796;2022-12-07T05:46:31;7.97;;;7.00;;
75818;SDS011;64453;51.944;9.796;2022-12-07T05:48:58;8.60;;;7.43;;
75818;SDS011;64453;51.944;9.796;2022-12-07T05:51:25;7.53;;;6.83;;
75818;SDS011;64453;51.944;9.796;2022-12-07T05:53:52;7.40;;;6.70;;
75818;SDS011;64453;51.944;9.796;2022-12-07T05:56:20;6.73;;;6.07;;
75818;SDS011;64453;51.944;9.796;2022-12-07T05:58:48;9.13;;;7.80;;
75818;SDS011;64453;51.944;9.796;2022-12-07T06:01:34;8.13;;;6.20;;
75818;SDS011;64453;51.944;9.796;2022-12-07T06:04:01;8.73;;;6.07;;
75818;SDS011;64453;51.944;9.796;2022-12-07T06:06:28;7.60;;;6.90;;
75818;SDS011;64453;51.944;9.796;2022-12-07T06:08:55;7.47;;;6.67;;
75818;SDS011;64453;51.944;9.796;2022-12-07T06:11:22;7.60;;;5.93;;
75818;SDS011;64453;51.944;9.796;2022-12-07T06:14:07;7.23;;;6.20;;
75818;SDS011;64453;51.944;9.796;2022-12-07T06:16:36;11.10;;;5.97;;
75818;SDS011;64453;51.944;9.796;2022-12-07T06:19:03;7.10;;;6.40;;
75818;SDS011;64453;51.944;9.796;2022-12-07T06:21:31;6.97;;;6.13;;
75818;SDS011;64453;51.944;9.796;2022-12-07T06:23:58;6.37;;;5.77;;
75818;SDS011;64453;51.944;9.796;2022-12-07T06:26:25;7.63;;;6.13;;
75818;SDS011;64453;51.944;9.796;2022-12-07T06:28:52;7.63;;;6.20;;
75818;SDS011;64453;51.944;9.796;2022-12-07T06:31:19;6.30;;;5.70;;
75818;SDS011;64453;51.944;9.796;2022-12-07T06:33:49;7.57;;;5.80;;
75818;SDS011;64453;51.944;9.796;2022-12-07T06:36:16;5.13;;;4.70;;
75818;SDS011;64453;51.944;9.796;2022-12-07T06:38:43;6.80;;;6.10;;
75818;SDS011;64453;51.944;9.796;2022-12-07T06:41:10;6.47;;;5.87;;
75818;SDS011;64453;51.944;9.796;2022-12-07T06:43:37;8.33;;;5.00;;
75818;SDS011;64453;51.944;9.796;2022-12-07T06:46:04;6.17;;;5.33;;
75818;SDS011;64453;51.944;9.796;2022-12-07T06:48:31;6.67;;;5.70;;
75818;SDS011;64453;51.944;9.796;2022-12-07T06:51:00;9.07;;;5.73;;
75818;SDS011;64453;51.944;9.796;2022-12-07T06:53:27;5.90;;;5.37;;
75818;SDS011;64453;51.944;9.796;2022-12-07T06:55:54;6.57;;;5.23;;
75818;SDS011;64453;51.944;9.796;2022-12-07T06:58:21;5.70;;;5.10;;
75818;SDS011;64453;51.944;9.796;2022-12-07T07:00:48;5.87;;;5.10;;
75818;SDS011;64453;51.944;9.796;2022-12-07T07:03:15;7.93;;;5.00;;
75818;SDS011;64453;51.944;9.796;2022-12-07T07:05:43;7.93;;;6.10;;
75818;SDS011;64453;51.944;9.796;2022-12-07T07:08:12;8.63;;;5.93;;
75818;SDS011;64453;51.944;9.796;2022-12-07T07:10:39;6.73;;;5.07;;
75818;SDS011;64453;51.944;9.796;2022-12-07T07:13:07;9.00;;;5.27;;
75818;SDS011;64453;51.944;9.796;2022-12-07T07:15:35;6.67;;;5.00;;
75818;SDS011;64453;51.944;9.796;2022-12-07T07:18:04;6.87;;;5.07;;
75818;SDS011;64453;51.944;9.796;2022-12-07T07:20:31;5.90;;;4.80;;
75818;SDS011;64453;51.944;9.796;2022-12-07T07:22:58;5.73;;;5.07;;
75818;SDS011;64453;51.944;9.796;2022-12-07T07:25:26;7.17;;;4.90;;
75818;SDS011;64453;51.944;9.796;2022-12-07T07:27:53;7.87;;;4.73;;
75818;SDS011;64453;51.944;9.796;2022-12-07T07:30:20;5.43;;;5.00;;
75818;SDS011;64453;51.944;9.796;2022-12-07T07:32:47;5.30;;;4.73;;
75818;SDS011;64453;51.944;9.796;2022-12-07T07:35:14;6.23;;;4.03;;
75818;SDS011;64453;51.944;9.796;2022-12-07T07:37:41;6.60;;;5.00;;
75818;SDS011;64453;51.944;9.796;2022-12-07T07:40:09;5.33;;;4.83;;
75818;SDS011;64453;51.944;9.796;2022-12-07T07:42:38;4.97;;;4.30;;
75818;SDS011;64453;51.944;9.796;2022-12-07T07:45:05;4.93;;;4.43;;
75818;SDS011;64453;51.944;9.796;2022-12-07T07:47:34;4.80;;;4.33;;
75818;SDS011;64453;51.944;9.796;2022-12-07T07:50:00;6.70;;;3.80;;
75818;SDS011;64453;51.944;9.796;2022-12-07T07:52:30;5.13;;;4.10;;
75818;SDS011;64453;51.944;9.796;2022-12-07T07:54:57;4.33;;;3.70;;
75818;SDS011;64453;51.944;9.796;2022-12-07T07:57:24;3.80;;;3.50;;
75818;SDS011;64453;51.944;9.796;2022-12-07T07:59:53;4.03;;;3.70;;
75818;SDS011;64453;51.944;9.796;2022-12-07T08:02:20;3.13;;;2.90;;
75818;SDS011;64453;51.944;9.796;2022-12-07T08:04:48;4.23;;;3.27;;
75818;SDS011;64453;51.944;9.796;2022-12-07T08:07:15;2.90;;;2.63;;
75818;SDS011;64453;51.944;9.796;2022-12-07T08:09:42;3.20;;;2.90;;
75818;SDS011;64453;51.944;9.796;2022-12-07T08:12:09;3.10;;;2.40;;
75818;SDS011;64453;51.944;9.796;2022-12-07T08:14:36;5.60;;;2.80;;
75818;SDS011;64453;51.944;9.796;2022-12-07T08:17:04;5.37;;;2.90;;
75818;SDS011;64453;51.944;9.796;2022-12-07T08:19:32;3.70;;;2.90;;
75818;SDS011;64453;51.944;9.796;2022-12-07T08:21:59;3.40;;;3.10;;
75818;SDS011;64453;51.944;9.796;2022-12-07T08:24:26;2.70;;;2.50;;
75818;SDS011;64453;51.944;9.796;2022-12-07T08:26:53;2.67;;;2.47;;
75818;SDS011;64453;51.944;9.796;2022-12-07T08:29:20;5.20;;;2.40;;
75818;SDS011;64453;51.944;9.796;2022-12-07T08:31:47;4.23;;;2.63;;
75818;SDS011;64453;51.944;9.796;2022-12-07T08:34:16;4.57;;;2.53;;
75818;SDS011;64453;51.944;9.796;2022-12-07T08:36:43;3.80;;;2.90;;
75818;SDS011;64453;51.944;9.796;2022-12-07T08:39:10;3.97;;;3.53;;
75818;SDS011;64453;51.944;9.796;2022-12-07T08:41:36;4.57;;;3.00;;
75818;SDS011;64453;51.944;9.796;2022-12-07T08:44:04;4.17;;;2.70;;
75818;SDS011;64453;51.944;9.796;2022-12-07T08:46:33;4.80;;;3.10;;
75818;SDS011;64453;51.944;9.796;2022-12-07T08:49:04;6.03;;;2.80;;
75818;SDS011;64453;51.944;9.796;2022-12-07T08:51:36;5.50;;;3.60;;
75818;SDS011;64453;51.944;9.796;2022-12-07T08:54:04;3.93;;;3.27;;
75818;SDS011;64453;51.944;9.796;2022-12-07T08:56:35;5.90;;;3.20;;
75818;SDS011;64453;51.944;9.796;2022-12-07T08:59:02;5.57;;;3.33;;
75818;SDS011;64453;51.944;9.796;2022-12-07T09:01:30;5.10;;;3.33;;
75818;SDS011;64453;51.944;9.796;2022-12-07T09:03:58;4.77;;;3.50;;
75818;SDS011;64453;51.944;9.796;2022-12-07T09:06:25;7.00;;;3.73;;
75818;SDS011;64453;51.944;9.796;2022-12-07T09:08:57;4.40;;;3.40;;
75818;SDS011;64453;51.944;9.796;2022-12-07T09:11:26;4.13;;;3.30;;
75818;SDS011;64453;51.944;9.796;2022-12-07T09:13:54;4.50;;;3.80;;
75818;SDS011;64453;51.944;9.796;2022-12-07T09:16:21;9.07;;;3.70;;
75818;SDS011;64453;51.944;9.796;2022-12-07T09:18:48;6.27;;;3.90;;
75818;SDS011;64453;51.944;9.796;2022-12-07T09:21:15;4.70;;;3.93;;
75818;SDS011;64453;51.944;9.796;2022-12-07T09:23:42;6.87;;;3.37;;
75818;SDS011;64453;51.944;9.796;2022-12-07T09:26:12;4.47;;;4.03;;
75818;SDS011;64453;51.944;9.796;2022-12-07T09:28:40;3.50;;;3.20;;
75818;SDS011;64453;51.944;9.796;2022-12-07T09:31:07;3.57;;;3.37;;
75818;SDS011;64453;51.944;9.796;2022-12-07T09:33:34;4.47;;;3.83;;
75818;SDS011;64453;51.944;9.796;2022-12-07T09:36:01;3.47;;;3.27;;
75818;SDS011;64453;51.944;9.796;2022-12-07T09:38:30;5.00;;;3.90;;
75818;SDS011;64453;51.944;9.796;2022-12-07T09:40:57;4.43;;;3.20;;
75818;SDS011;64453;51.944;9.796;2022-12-07T09:43:33;4.03;;;2.97;;
75818;SDS011;64453;51.944;9.796;2022-12-07T09:46:02;9.63;;;5.73;;
75818;SDS011;64453;51.944;9.796;2022-12-07T09:48:30;2.93;;;2.63;;
75818;SDS011;64453;51.944;9.796;2022-12-07T09:51:02;8.57;;;5.30;;
75818;SDS011;64453;51.944;9.796;2022-12-07T09:53:41;3.80;;;2.73;;
75818;SDS011;64453;51.944;9.796;2022-12-07T09:56:09;3.00;;;2.70;;
75818;SDS011;64453;51.944;9.796;2022-12-07T09:58:40;4.70;;;4.30;;
75818;SDS011;64453;51.944;9.796;2022-12-07T10:01:10;9.40;;;7.63;;
75818;SDS011;64453;51.944;9.796;2022-12-07T10:03:42;3.40;;;3.10;;
75818;SDS011;64453;51.944;9.796;2022-12-07T10:06:15;4.30;;;3.90;;
75818;SDS011;64453;51.944;9.796;2022-12-07T10:08:43;3.50;;;3.20;;
75818;SDS011;64453;51.944;9.796;2022-12-07T10:11:10;3.57;;;2.83;;
75818;SDS011;64453;51.944;9.796;2022-12-07T10:13:41;2.60;;;2.40;;
75818;SDS011;64453;51.944;9.796;2022-12-07T10:16:32;4.70;;;3.20;;
75818;SDS011;64453;51.944;9.796;2022-12-07T10:19:18;4.00;;;3.67;;
75818;SDS011;64453;51.944;9.796;2022-12-07T10:22:01;3.23;;;2.97;;
75818;SDS011;64453;51.944;9.796;2022-12-07T10:24:33;2.90;;;2.70;;
75818;SDS011;64453;51.944;9.796;2022-12-07T10:27:02;4.03;;;2.70;;
75818;SDS011;64453;51.944;9.796;2022-12-07T10:29:31;4.03;;;3.73;;
75818;SDS011;64453;51.944;9.796;2022-12-07T10:32:02;2.70;;;2.50;;
75818;SDS011;64453;51.944;9.796;2022-12-07T10:34:32;5.97;;;3.50;;
75818;SDS011;64453;51.944;9.796;2022-12-07T10:37:15;6.03;;;3.07;;
75818;SDS011;64453;51.944;9.796;2022-12-07T10:39:46;4.07;;;2.97;;
75818;SDS011;64453;51.944;9.796;2022-12-07T10:42:16;2.93;;;2.40;;
75818;SDS011;64453;51.944;9.796;2022-12-07T10:44:46;5.13;;;3.80;;
75818;SDS011;64453;51.944;9.796;2022-12-07T10:47:19;3.13;;;2.70;;
75818;SDS011;64453;51.944;9.796;2022-12-07T10:50:06;6.47;;;5.87;;
75818;SDS011;64453;51.944;9.796;2022-12-07T10:52:54;2.70;;;2.50;;
75818;SDS011;64453;51.944;9.796;2022-12-07T10:55:41;7.07;;;2.90;;
75818;SDS011;64453;51.944;9.796;2022-12-07T10:58:30;5.13;;;3.00;;
75818;SDS011;64453;51.944;9.796;2022-12-07T11:01:10;4.17;;;3.10;;
75818;SDS011;64453;51.944;9.796;2022-12-07T11:03:48;5.03;;;2.50;;
75818;SDS011;64453;51.944;9.796;2022-12-07T11:06:34;3.27;;;2.90;;
75818;SDS011;64453;51.944;9.796;2022-12-07T11:09:16;2.90;;;2.70;;
75818;SDS011;64453;51.944;9.796;2022-12-07T11:12:16;8.23;;;6.20;;
75818;SDS011;64453;51.944;9.796;2022-12-07T11:14:54;5.90;;;3.70;;
75818;SDS011;64453;51.944;9.796;2022-12-07T11:17:31;2.27;;;2.07;;
75818;SDS011;64453;51.944;9.796;2022-12-07T11:20:05;3.00;;;2.70;;
75818;SDS011;64453;51.944;9.796;2022-12-07T11:22:54;3.33;;;2.30;;
75818;SDS011;64453;51.944;9.796;2022-12-07T11:25:31;3.73;;;2.33;;
75818;SDS011;64453;51.944;9.796;2022-12-07T11:28:08;3.73;;;1.80;;
75818;SDS011;64453;51.944;9.796;2022-12-07T11:30:48;5.27;;;1.97;;
75818;SDS011;64453;51.944;9.796;2022-12-07T11:33:27;3.87;;;2.10;;
75818;SDS011;64453;51.944;9.796;2022-12-07T11:36:05;2.40;;;1.80;;
75818;SDS011;64453;51.944;9.796;2022-12-07T11:38:50;3.33;;;1.93;;
75818;SDS011;64453;51.944;9.796;2022-12-07T11:41:22;3.20;;;1.70;;
75818;SDS011;64453;51.944;9.796;2022-12-07T11:43:59;3.80;;;2.20;;
75818;SDS011;64453;51.944;9.796;2022-12-07T11:46:35;4.90;;;2.00;;
75818;SDS011;64453;51.944;9.796;2022-12-07T11:49:13;2.90;;;1.97;;
75818;SDS011;64453;51.944;9.796;2022-12-07T11:51:48;4.80;;;2.73;;
75818;SDS011;64453;51.944;9.796;2022-12-07T11:54:18;5.57;;;2.23;;
75818;SDS011;64453;51.944;9.796;2022-12-07T11:56:50;3.83;;;2.23;;
75818;SDS011;64453;51.944;9.796;2022-12-07T11:59:22;5.30;;;2.20;;
75818;SDS011;64453;51.944;9.796;2022-12-07T12:01:58;3.60;;;2.33;;
75818;SDS011;64453;51.944;9.796;2022-12-07T12:04:47;3.20;;;2.00;;
75818;SDS011;64453;51.944;9.796;2022-12-07T12:07:21;4.77;;;2.43;;
75818;SDS011;64453;51.944;9.796;2022-12-07T12:09:52;5.20;;;2.70;;
75818;SDS011;64453;51.944;9.796;2022-12-07T12:12:27;9.20;;;2.47;;
75818;SDS011;64453;51.944;9.796;2022-12-07T12:15:37;4.03;;;3.00;;
75818;SDS011;64453;51.944;9.796;2022-12-07T12:18:26;6.83;;;2.10;;
75818;SDS011;64453;51.944;9.796;2022-12-07T12:21:10;6.10;;;2.50;;
75818;SDS011;64453;51.944;9.796;2022-12-07T12:23:43;5.13;;;2.50;;
75818;SDS011;64453;51.944;9.796;2022-12-07T12:26:15;5.23;;;1.77;;
75818;SDS011;64453;51.944;9.796;2022-12-07T12:28:50;6.10;;;1.80;;
75818;SDS011;64453;51.944;9.796;2022-12-07T12:34:30;3.87;;;1.57;;
75818;SDS011;64453;51.944;9.796;2022-12-07T12:37:17;7.00;;;2.30;;
75818;SDS011;64453;51.944;9.796;2022-12-07T12:46:38;5.90;;;2.00;;
75818;SDS011;64453;51.944;9.796;2022-12-07T12:55:20;2.87;;;2.03;;
75818;SDS011;64453;51.944;9.796;2022-12-07T13:01:32;5.23;;;2.50;;
75818;SDS011;64453;51.944;9.796;2022-12-07T13:07:01;3.83;;;1.80;;
75818;SDS011;64453;51.944;9.796;2022-12-07T13:09:31;3.00;;;2.00;;
75818;SDS011;64453;51.944;9.796;2022-12-07T13:12:02;5.43;;;1.97;;
75818;SDS011;64453;51.944;9.796;2022-12-07T13:14:42;3.70;;;1.70;;
75818;SDS011;64453;51.944;9.796;2022-12-07T13:23:16;8.90;;;3.20;;
75818;SDS011;64453;51.944;9.796;2022-12-07T13:26:01;5.90;;;2.80;;
75818;SDS011;64453;51.944;9.796;2022-12-07T13:28:41;7.90;;;2.00;;
75818;SDS011;64453;51.944;9.796;2022-12-07T13:31:15;3.20;;;2.30;;
75818;SDS011;64453;51.944;9.796;2022-12-07T13:33:51;4.20;;;1.50;;
75818;SDS011;64453;51.944;9.796;2022-12-07T13:36:20;3.63;;;2.43;;
75818;SDS011;64453;51.944;9.796;2022-12-07T13:38:53;3.40;;;2.03;;
75818;SDS011;64453;51.944;9.796;2022-12-07T13:41:24;7.37;;;2.67;;
75818;SDS011;64453;51.944;9.796;2022-12-07T13:43:59;4.37;;;1.60;;
75818;SDS011;64453;51.944;9.796;2022-12-07T13:46:41;3.60;;;1.60;;
75818;SDS011;64453;51.944;9.796;2022-12-07T13:49:20;6.43;;;2.33;;
75818;SDS011;64453;51.944;9.796;2022-12-07T13:51:50;4.47;;;2.30;;
75818;SDS011;64453;51.944;9.796;2022-12-07T13:54:20;8.10;;;4.47;;
75818;SDS011;64453;51.944;9.796;2022-12-07T13:56:51;8.90;;;6.87;;
75818;SDS011;64453;51.944;9.796;2022-12-07T13:59:19;10.97;;;7.53;;
75818;SDS011;64453;51.944;9.796;2022-12-07T14:01:48;3.50;;;2.03;;
75818;SDS011;64453;51.944;9.796;2022-12-07T14:04:17;7.30;;;3.03;;
75818;SDS011;64453;51.944;9.796;2022-12-07T14:06:58;5.93;;;2.20;;
75818;SDS011;64453;51.944;9.796;2022-12-07T14:09:27;4.10;;;2.10;;
75818;SDS011;64453;51.944;9.796;2022-12-07T14:11:57;2.67;;;1.30;;
75818;SDS011;64453;51.944;9.796;2022-12-07T14:14:25;3.57;;;1.70;;
75818;SDS011;64453;51.944;9.796;2022-12-07T14:16:56;4.53;;;1.80;;
75818;SDS011;64453;51.944;9.796;2022-12-07T14:19:41;5.20;;;1.70;;
75818;SDS011;64453;51.944;9.796;2022-12-07T14:22:19;5.17;;;3.83;;
75818;SDS011;64453;51.944;9.796;2022-12-07T14:24:59;7.27;;;2.50;;
75818;SDS011;64453;51.944;9.796;2022-12-07T14:27:53;6.70;;;3.40;;
75818;SDS011;64453;51.944;9.796;2022-12-07T14:30:23;3.83;;;2.60;;
75818;SDS011;64453;51.944;9.796;2022-12-07T14:32:53;6.47;;;2.93;;
75818;SDS011;64453;51.944;9.796;2022-12-07T14:35:24;9.17;;;6.00;;
75818;SDS011;64453;51.944;9.796;2022-12-07T14:37:51;6.30;;;3.73;;
75818;SDS011;64453;51.944;9.796;2022-12-07T14:40:19;9.80;;;3.33;;
75818;SDS011;64453;51.944;9.796;2022-12-07T14:42:49;7.57;;;2.40;;
75818;SDS011;64453;51.944;9.796;2022-12-07T14:45:22;6.57;;;2.13;;
75818;SDS011;64453;51.944;9.796;2022-12-07T14:47:49;6.30;;;2.67;;
75818;SDS011;64453;51.944;9.796;2022-12-07T14:50:17;7.07;;;2.67;;
75818;SDS011;64453;51.944;9.796;2022-12-07T14:52:47;3.30;;;1.77;;
75818;SDS011;64453;51.944;9.796;2022-12-07T14:55:20;3.67;;;1.37;;
75818;SDS011;64453;51.944;9.796;2022-12-07T14:57:51;5.80;;;1.77;;
75818;SDS011;64453;51.944;9.796;2022-12-07T15:00:20;2.10;;;1.30;;
75818;SDS011;64453;51.944;9.796;2022-12-07T15:02:49;4.10;;;1.47;;
75818;SDS011;64453;51.944;9.796;2022-12-07T15:05:17;2.60;;;1.47;;
75818;SDS011;64453;51.944;9.796;2022-12-07T15:07:45;3.20;;;1.37;;
75818;SDS011;64453;51.944;9.796;2022-12-07T15:10:14;6.03;;;2.20;;
75818;SDS011;64453;51.944;9.796;2022-12-07T15:12:45;3.50;;;3.00;;
75818;SDS011;64453;51.944;9.796;2022-12-07T15:15:13;4.90;;;1.70;;
75818;SDS011;64453;51.944;9.796;2022-12-07T15:17:42;5.93;;;2.63;;
75818;SDS011;64453;51.944;9.796;2022-12-07T15:20:10;3.17;;;1.70;;
75818;SDS011;64453;51.944;9.796;2022-12-07T15:22:39;1.73;;;1.30;;
75818;SDS011;64453;51.944;9.796;2022-12-07T15:25:07;4.40;;;2.33;;
75818;SDS011;64453;51.944;9.796;2022-12-07T15:27:35;5.90;;;2.07;;
75818;SDS011;64453;51.944;9.796;2022-12-07T15:30:02;3.17;;;2.43;;
75818;SDS011;64453;51.944;9.796;2022-12-07T15:32:32;3.60;;;2.37;;
75818;SDS011;64453;51.944;9.796;2022-12-07T15:35:02;3.93;;;3.10;;
75818;SDS011;64453;51.944;9.796;2022-12-07T15:37:29;3.87;;;2.17;;
75818;SDS011;64453;51.944;9.796;2022-12-07T15:39:56;6.27;;;2.20;;
75818;SDS011;64453;51.944;9.796;2022-12-07T15:42:25;2.47;;;1.50;;